sensor_id;sensor_type;location;lat;lon;timestamp;temperature;humidity
38380;DHT22;38377;47.418;18.882;2023-06-10T00:01:51;16.50;99.90
38380;DHT22;38377;47.418;18.882;2023-06-10T00:04:20;16.50;99.90
38380;DHT22;38377;47.418;18.882;2023-06-10T00:06:46;16.50;99.90
38380;DHT22;38377;47.418;18.882;2023-06-10T00:09:15;16.50;99.90
38380;DHT22;38377;47.418;18.882;2023-06-10T00:11:41;16.50;99.90
38380;DHT22;38377;47.418;18.882;2023-06-10T00:14:08;16.60;99.90
38380;DHT22;38377;47.418;18.882;2023-06-10T00:16:35;16.50;99.90
38380;DHT22;38377;47.418;18.882;2023-06-10T00:19:04;16.50;99.90
38380;DHT22;38377;47.418;18.882;2023-06-10T00:21:32;16.60;99.90
38380;DHT22;38377;47.418;18.882;2023-06-10T00:24:06;16.60;99.90
38380;DHT22;38377;47.418;18.882;2023-06-10T00:26:33;16.50;99.90
38380;DHT22;38377;47.418;18.882;2023-06-10T00:29:01;16.60;99.90
38380;DHT22;38377;47.418;18.882;2023-06-10T00:31:27;16.50;99.90
38380;DHT22;38377;47.418;18.882;2023-06-10T00:33:53;16.50;99.90
38380;DHT22;38377;47.418;18.882;2023-06-10T00:36:19;16.60;99.90
38380;DHT22;38377;47.418;18.882;2023-06-10T00:38:44;16.60;99.90
38380;DHT22;38377;47.418;18.882;2023-06-10T00:41:10;16.60;99.90
38380;DHT22;38377;47.418;18.882;2023-06-10T00:43:36;16.60;99.90
38380;DHT22;38377;47.418;18.882;2023-06-10T00:46:02;16.60;99.90
38380;DHT22;38377;47.418;18.882;2023-06-10T00:48:28;16.60;99.90
38380;DHT22;38377;47.418;18.882;2023-06-10T00:50:54;16.60;99.90
38380;DHT22;38377;47.418;18.882;2023-06-10T00:53:21;16.60;99.90
38380;DHT22;38377;47.418;18.882;2023-06-10T00:55:47;16.60;99.90
38380;DHT22;38377;47.418;18.882;2023-06-10T00:58:13;16.70;99.90
38380;DHT22;38377;47.418;18.882;2023-06-10T01:00:39;16.60;99.90
38380;DHT22;38377;47.418;18.882;2023-06-10T01:03:05;16.50;99.90
38380;DHT22;38377;47.418;18.882;2023-06-10T01:05:36;16.60;99.90
38380;DHT22;38377;47.418;18.882;2023-06-10T01:08:28;16.60;99.90
38380;DHT22;38377;47.418;18.882;2023-06-10T01:11:00;16.60;99.90
38380;DHT22;38377;47.418;18.882;2023-06-10T01:13:27;16.60;99.90
38380;DHT22;38377;47.418;18.882;2023-06-10T01:15:57;16.60;99.90
38380;DHT22;38377;47.418;18.882;2023-06-10T01:18:29;16.60;99.90
38380;DHT22;38377;47.418;18.882;2023-06-10T01:20:56;16.50;99.90
38380;DHT22;38377;47.418;18.882;2023-06-10T01:23:23;16.40;99.90
38380;DHT22;38377;47.418;18.882;2023-06-10T01:26:05;16.50;99.90
38380;DHT22;38377;47.418;18.882;2023-06-10T01:28:49;16.50;99.90
38380;DHT22;38377;47.418;18.882;2023-06-10T01:34:13;16.50;99.90
38380;DHT22;38377;47.418;18.882;2023-06-10T01:36:41;16.60;99.90
38380;DHT22;38377;47.418;18.882;2023-06-10T01:39:08;16.60;99.90
38380;DHT22;38377;47.418;18.882;2023-06-10T01:41:37;16.70;99.90
38380;DHT22;38377;47.418;18.882;2023-06-10T01:44:03;16.70;99.90
38380;DHT22;38377;47.418;18.882;2023-06-10T01:46:29;16.70;99.90
38380;DHT22;38377;47.418;18.882;2023-06-10T01:48:55;16.70;99.90
38380;DHT22;38377;47.418;18.882;2023-06-10T01:51:21;16.70;99.90
38380;DHT22;38377;47.418;18.882;2023-06-10T01:53:46;16.70;99.90
38380;DHT22;38377;47.418;18.882;2023-06-10T01:56:12;16.80;99.90
38380;DHT22;38377;47.418;18.882;2023-06-10T01:58:43;16.80;99.90
38380;DHT22;38377;47.418;18.882;2023-06-10T02:01:09;16.80;99.90
38380;DHT22;38377;47.418;18.882;2023-06-10T02:03:35;16.80;99.90
38380;DHT22;38377;47.418;18.882;2023-06-10T02:06:01;16.80;99.90
38380;DHT22;38377;47.418;18.882;2023-06-10T02:08:26;16.80;99.90
38380;DHT22;38377;47.418;18.882;2023-06-10T02:10:53;16.80;99.90
38380;DHT22;38377;47.418;18.882;2023-06-10T02:13:19;16.70;99.90
38380;DHT22;38377;47.418;18.882;2023-06-10T02:15:45;16.70;99.90
38380;DHT22;38377;47.418;18.882;2023-06-10T02:18:10;16.80;99.90
38380;DHT22;38377;47.418;18.882;2023-06-10T02:20:37;16.70;99.90
38380;DHT22;38377;47.418;18.882;2023-06-10T02:23:03;16.70;99.90
38380;DHT22;38377;47.418;18.882;2023-06-10T02:25:29;16.70;99.90
38380;DHT22;38377;47.418;18.882;2023-06-10T02:27:55;16.70;99.90
38380;DHT22;38377;47.418;18.882;2023-06-10T02:30:21;16.70;99.90
38380;DHT22;38377;47.418;18.882;2023-06-10T02:32:46;16.70;99.90
38380;DHT22;38377;47.418;18.882;2023-06-10T02:35:16;16.70;99.90
38380;DHT22;38377;47.418;18.882;2023-06-10T02:37:43;16.60;99.90
38380;DHT22;38377;47.418;18.882;2023-06-10T02:40:11;16.60;99.90
38380;DHT22;38377;47.418;18.882;2023-06-10T02:42:37;16.60;99.90
38380;DHT22;38377;47.418;18.882;2023-06-10T02:45:03;16.60;99.90
38380;DHT22;38377;47.418;18.882;2023-06-10T02:47:29;16.60;99.90
38380;DHT22;38377;47.418;18.882;2023-06-10T02:49:55;16.60;99.90
38380;DHT22;38377;47.418;18.882;2023-06-10T02:52:20;16.60;99.90
38380;DHT22;38377;47.418;18.882;2023-06-10T02:54:46;16.60;99.90
38380;DHT22;38377;47.418;18.882;2023-06-10T02:57:12;16.60;99.90
38380;DHT22;38377;47.418;18.882;2023-06-10T02:59:39;16.60;99.90
38380;DHT22;38377;47.418;18.882;2023-06-10T03:02:05;16.60;99.90
38380;DHT22;38377;47.418;18.882;2023-06-10T03:04:31;16.60;99.90
38380;DHT22;38377;47.418;18.882;2023-06-10T03:06:57;16.50;99.90
38380;DHT22;38377;47.418;18.882;2023-06-10T03:09:23;16.50;99.90
38380;DHT22;38377;47.418;18.882;2023-06-10T03:11:48;16.50;99.90
38380;DHT22;38377;47.418;18.882;2023-06-10T03:14:14;16.50;99.90
38380;DHT22;38377;47.418;18.882;2023-06-10T03:16:40;16.50;99.90
38380;DHT22;38377;47.418;18.882;2023-06-10T03:19:06;16.50;99.90
38380;DHT22;38377;47.418;18.882;2023-06-10T03:21:39;16.60;99.90
38380;DHT22;38377;47.418;18.882;2023-06-10T03:24:07;16.50;99.90
38380;DHT22;38377;47.418;18.882;2023-06-10T03:26:32;16.50;99.90
38380;DHT22;38377;47.418;18.882;2023-06-10T03:28:59;16.50;99.90
38380;DHT22;38377;47.418;18.882;2023-06-10T03:31:25;16.50;99.90
38380;DHT22;38377;47.418;18.882;2023-06-10T03:33:51;16.40;99.90
38380;DHT22;38377;47.418;18.882;2023-06-10T03:36:17;16.40;99.90
38380;DHT22;38377;47.418;18.882;2023-06-10T03:38:42;16.40;99.90
38380;DHT22;38377;47.418;18.882;2023-06-10T03:41:08;16.40;99.90
38380;DHT22;38377;47.418;18.882;2023-06-10T03:43:34;16.40;99.90
38380;DHT22;38377;47.418;18.882;2023-06-10T03:45:59;16.40;99.90
38380;DHT22;38377;47.418;18.882;2023-06-10T03:48:25;16.40;99.90
38380;DHT22;38377;47.418;18.882;2023-06-10T03:50:51;16.40;99.90
38380;DHT22;38377;47.418;18.882;2023-06-10T03:53:17;16.30;99.90
38380;DHT22;38377;47.418;18.882;2023-06-10T03:55:43;16.40;99.90
38380;DHT22;38377;47.418;18.882;2023-06-10T03:58:09;16.40;99.90
38380;DHT22;38377;47.418;18.882;2023-06-10T04:00:35;16.40;99.90
38380;DHT22;38377;47.418;18.882;2023-06-10T04:03:09;16.40;99.90
38380;DHT22;38377;47.418;18.882;2023-06-10T04:05:40;16.40;99.90
38380;DHT22;38377;47.418;18.882;2023-06-10T04:08:06;16.40;99.90
38380;DHT22;38377;47.418;18.882;2023-06-10T04:10:32;16.40;99.90
38380;DHT22;38377;47.418;18.882;2023-06-10T04:12:58;16.40;99.90
38380;DHT22;38377;47.418;18.882;2023-06-10T04:15:25;16.50;99.90
38380;DHT22;38377;47.418;18.882;2023-06-10T04:17:51;16.60;99.90
38380;DHT22;38377;47.418;18.882;2023-06-10T04:20:18;16.70;99.90
38380;DHT22;38377;47.418;18.882;2023-06-10T04:22:43;16.80;99.90
38380;DHT22;38377;47.418;18.882;2023-06-10T04:25:10;17.00;99.90
38380;DHT22;38377;47.418;18.882;2023-06-10T04:27:35;17.10;99.90
38380;DHT22;38377;47.418;18.882;2023-06-10T04:30:02;17.40;99.90
38380;DHT22;38377;47.418;18.882;2023-06-10T04:32:29;17.60;99.90
38380;DHT22;38377;47.418;18.882;2023-06-10T04:34:55;17.90;99.90
38380;DHT22;38377;47.418;18.882;2023-06-10T04:37:20;18.10;99.90
38380;DHT22;38377;47.418;18.882;2023-06-10T04:39:46;18.20;99.90
38380;DHT22;38377;47.418;18.882;2023-06-10T04:42:12;18.40;99.90
38380;DHT22;38377;47.418;18.882;2023-06-10T04:44:37;18.70;99.90
38380;DHT22;38377;47.418;18.882;2023-06-10T04:47:04;19.00;99.90
38380;DHT22;38377;47.418;18.882;2023-06-10T04:49:30;19.40;99.90
38380;DHT22;38377;47.418;18.882;2023-06-10T04:51:55;19.90;99.90
38380;DHT22;38377;47.418;18.882;2023-06-10T04:54:21;20.30;99.90
38380;DHT22;38377;47.418;18.882;2023-06-10T04:56:46;20.50;99.90
38380;DHT22;38377;47.418;18.882;2023-06-10T04:59:12;20.50;99.90
38380;DHT22;38377;47.418;18.882;2023-06-10T05:01:40;20.20;99.90
38380;DHT22;38377;47.418;18.882;2023-06-10T05:04:05;20.00;99.90
38380;DHT22;38377;47.418;18.882;2023-06-10T05:06:31;19.70;99.90
38380;DHT22;38377;47.418;18.882;2023-06-10T05:08:56;19.70;99.90
38380;DHT22;38377;47.418;18.882;2023-06-10T05:11:22;20.10;99.90
38380;DHT22;38377;47.418;18.882;2023-06-10T05:13:48;20.50;99.90
38380;DHT22;38377;47.418;18.882;2023-06-10T05:16:14;21.10;99.90
38380;DHT22;38377;47.418;18.882;2023-06-10T05:18:40;21.80;99.90
38380;DHT22;38377;47.418;18.882;2023-06-10T05:21:06;22.40;99.90
38380;DHT22;38377;47.418;18.882;2023-06-10T05:23:32;22.50;99.90
38380;DHT22;38377;47.418;18.882;2023-06-10T05:25:58;23.00;99.90
38380;DHT22;38377;47.418;18.882;2023-06-10T05:28:25;23.60;99.90
38380;DHT22;38377;47.418;18.882;2023-06-10T05:30:51;23.80;99.90
38380;DHT22;38377;47.418;18.882;2023-06-10T05:33:17;23.50;99.90
38380;DHT22;38377;47.418;18.882;2023-06-10T05:35:42;22.80;99.90
38380;DHT22;38377;47.418;18.882;2023-06-10T05:38:08;22.20;99.90
38380;DHT22;38377;47.418;18.882;2023-06-10T05:40:34;21.40;99.90
38380;DHT22;38377;47.418;18.882;2023-06-10T05:42:59;20.70;99.90
38380;DHT22;38377;47.418;18.882;2023-06-10T05:45:27;20.20;99.90
38380;DHT22;38377;47.418;18.882;2023-06-10T05:47:52;19.80;99.90
38380;DHT22;38377;47.418;18.882;2023-06-10T05:50:18;19.40;99.90
38380;DHT22;38377;47.418;18.882;2023-06-10T05:52:44;19.10;99.90
38380;DHT22;38377;47.418;18.882;2023-06-10T05:55:10;19.00;99.90
38380;DHT22;38377;47.418;18.882;2023-06-10T05:57:35;19.20;99.90
38380;DHT22;38377;47.418;18.882;2023-06-10T06:00:01;19.30;99.90
38380;DHT22;38377;47.418;18.882;2023-06-10T06:02:27;19.30;99.90
38380;DHT22;38377;47.418;18.882;2023-06-10T06:04:52;19.50;99.90
38380;DHT22;38377;47.418;18.882;2023-06-10T06:07:18;19.60;99.90
38380;DHT22;38377;47.418;18.882;2023-06-10T06:09:46;19.60;99.90
38380;DHT22;38377;47.418;18.882;2023-06-10T06:12:12;19.50;99.90
38380;DHT22;38377;47.418;18.882;2023-06-10T06:14:38;19.50;99.90
38380;DHT22;38377;47.418;18.882;2023-06-10T06:17:07;19.40;99.90
38380;DHT22;38377;47.418;18.882;2023-06-10T06:19:33;19.30;99.90
38380;DHT22;38377;47.418;18.882;2023-06-10T06:21:59;19.20;99.90
38380;DHT22;38377;47.418;18.882;2023-06-10T06:24:25;19.10;99.90
38380;DHT22;38377;47.418;18.882;2023-06-10T06:26:50;18.90;99.90
38380;DHT22;38377;47.418;18.882;2023-06-10T06:29:16;18.70;99.90
38380;DHT22;38377;47.418;18.882;2023-06-10T06:31:42;18.60;99.90
38380;DHT22;38377;47.418;18.882;2023-06-10T06:34:07;18.50;99.90
38380;DHT22;38377;47.418;18.882;2023-06-10T06:36:33;18.60;99.90
38380;DHT22;38377;47.418;18.882;2023-06-10T06:38:59;18.60;99.90
38380;DHT22;38377;47.418;18.882;2023-06-10T06:41:28;18.70;99.90
38380;DHT22;38377;47.418;18.882;2023-06-10T06:43:54;18.70;99.90
38380;DHT22;38377;47.418;18.882;2023-06-10T06:46:20;18.70;99.90
38380;DHT22;38377;47.418;18.882;2023-06-10T06:48:46;18.70;99.90
38380;DHT22;38377;47.418;18.882;2023-06-10T06:51:12;18.70;99.90
38380;DHT22;38377;47.418;18.882;2023-06-10T06:53:39;18.70;99.90
38380;DHT22;38377;47.418;18.882;2023-06-10T06:56:20;18.70;99.90
38380;DHT22;38377;47.418;18.882;2023-06-10T06:58:46;18.70;99.90
38380;DHT22;38377;47.418;18.882;2023-06-10T07:01:12;18.70;99.90
38380;DHT22;38377;47.418;18.882;2023-06-10T07:03:38;18.80;99.90
38380;DHT22;38377;47.418;18.882;2023-06-10T07:06:03;19.00;99.90
38380;DHT22;38377;47.418;18.882;2023-06-10T07:08:29;19.10;99.90
38380;DHT22;38377;47.418;18.882;2023-06-10T07:10:55;19.20;99.90
38380;DHT22;38377;47.418;18.882;2023-06-10T07:13:20;19.40;99.90
38380;DHT22;38377;47.418;18.882;2023-06-10T07:15:46;19.50;99.90
38380;DHT22;38377;47.418;18.882;2023-06-10T07:18:12;19.80;99.90
38380;DHT22;38377;47.418;18.882;2023-06-10T07:20:37;20.30;99.90
38380;DHT22;38377;47.418;18.882;2023-06-10T07:23:03;20.70;99.90
38380;DHT22;38377;47.418;18.882;2023-06-10T07:25:29;20.70;99.90
38380;DHT22;38377;47.418;18.882;2023-06-10T07:27:55;21.00;99.90
38380;DHT22;38377;47.418;18.882;2023-06-10T07:30:20;21.30;99.90
38380;DHT22;38377;47.418;18.882;2023-06-10T07:32:46;20.90;99.90
38380;DHT22;38377;47.418;18.882;2023-06-10T07:35:12;21.10;99.90
38380;DHT22;38377;47.418;18.882;2023-06-10T07:37:37;21.30;99.90
38380;DHT22;38377;47.418;18.882;2023-06-10T07:40:04;21.80;99.90
38380;DHT22;38377;47.418;18.882;2023-06-10T07:42:32;22.00;99.90
38380;DHT22;38377;47.418;18.882;2023-06-10T07:44:58;22.00;99.90
38380;DHT22;38377;47.418;18.882;2023-06-10T07:47:23;22.10;99.90
38380;DHT22;38377;47.418;18.882;2023-06-10T07:49:49;21.90;99.90
38380;DHT22;38377;47.418;18.882;2023-06-10T07:52:15;21.80;99.90
38380;DHT22;38377;47.418;18.882;2023-06-10T07:54:40;22.00;99.90
38380;DHT22;38377;47.418;18.882;2023-06-10T07:57:06;21.90;99.90
38380;DHT22;38377;47.418;18.882;2023-06-10T07:59:33;21.60;99.90
38380;DHT22;38377;47.418;18.882;2023-06-10T08:01:58;21.10;99.90
38380;DHT22;38377;47.418;18.882;2023-06-10T08:04:24;20.90;99.90
38380;DHT22;38377;47.418;18.882;2023-06-10T08:06:50;20.80;99.90
38380;DHT22;38377;47.418;18.882;2023-06-10T08:09:16;20.60;99.90
38380;DHT22;38377;47.418;18.882;2023-06-10T08:11:42;20.90;99.90
38380;DHT22;38377;47.418;18.882;2023-06-10T08:14:07;21.00;99.90
38380;DHT22;38377;47.418;18.882;2023-06-10T08:16:33;21.30;99.90
38380;DHT22;38377;47.418;18.882;2023-06-10T08:18:59;21.30;99.90
38380;DHT22;38377;47.418;18.882;2023-06-10T08:21:24;21.40;99.90
38380;DHT22;38377;47.418;18.882;2023-06-10T08:23:53;21.10;99.90
38380;DHT22;38377;47.418;18.882;2023-06-10T08:26:19;21.50;99.90
38380;DHT22;38377;47.418;18.882;2023-06-10T08:28:45;21.80;99.90
38380;DHT22;38377;47.418;18.882;2023-06-10T08:31:10;22.00;99.90
38380;DHT22;38377;47.418;18.882;2023-06-10T08:33:36;22.00;99.90
38380;DHT22;38377;47.418;18.882;2023-06-10T08:36:02;22.30;99.90
38380;DHT22;38377;47.418;18.882;2023-06-10T08:38:28;22.60;99.90
38380;DHT22;38377;47.418;18.882;2023-06-10T08:40:56;22.50;99.90
38380;DHT22;38377;47.418;18.882;2023-06-10T08:43:34;22.10;99.90
38380;DHT22;38377;47.418;18.882;2023-06-10T08:46:03;22.20;99.90
38380;DHT22;38377;47.418;18.882;2023-06-10T08:48:30;22.60;99.90
38380;DHT22;38377;47.418;18.882;2023-06-10T08:50:57;23.10;99.90
38380;DHT22;38377;47.418;18.882;2023-06-10T08:53:24;23.10;99.90
38380;DHT22;38377;47.418;18.882;2023-06-10T08:55:51;23.20;99.90
38380;DHT22;38377;47.418;18.882;2023-06-10T08:58:18;23.30;99.90
38380;DHT22;38377;47.418;18.882;2023-06-10T09:00:45;23.20;99.90
38380;DHT22;38377;47.418;18.882;2023-06-10T09:03:11;23.70;99.90
38380;DHT22;38377;47.418;18.882;2023-06-10T09:05:38;23.70;99.90
38380;DHT22;38377;47.418;18.882;2023-06-10T09:08:06;23.20;99.90
38380;DHT22;38377;47.418;18.882;2023-06-10T09:10:32;23.00;99.90
38380;DHT22;38377;47.418;18.882;2023-06-10T09:12:58;23.40;99.90
38380;DHT22;38377;47.418;18.882;2023-06-10T09:15:24;23.90;99.90
38380;DHT22;38377;47.418;18.882;2023-06-10T09:17:50;24.30;99.50
38380;DHT22;38377;47.418;18.882;2023-06-10T09:20:17;24.30;99.90
38380;DHT22;38377;47.418;18.882;2023-06-10T09:22:43;24.40;99.90
38380;DHT22;38377;47.418;18.882;2023-06-10T09:25:10;24.60;99.30
38380;DHT22;38377;47.418;18.882;2023-06-10T09:27:47;24.00;98.60
38380;DHT22;38377;47.418;18.882;2023-06-10T09:32:55;23.80;99.90
38380;DHT22;38377;47.418;18.882;2023-06-10T09:35:25;23.90;99.90
38380;DHT22;38377;47.418;18.882;2023-06-10T09:37:56;24.20;97.90
38380;DHT22;38377;47.418;18.882;2023-06-10T09:40:22;24.20;99.30
38380;DHT22;38377;47.418;18.882;2023-06-10T09:42:53;24.40;99.90
38380;DHT22;38377;47.418;18.882;2023-06-10T09:45:20;24.10;99.60
38380;DHT22;38377;47.418;18.882;2023-06-10T09:47:55;24.20;99.30
38380;DHT22;38377;47.418;18.882;2023-06-10T09:50:21;23.80;98.80
38380;DHT22;38377;47.418;18.882;2023-06-10T09:52:47;23.60;99.50
38380;DHT22;38377;47.418;18.882;2023-06-10T09:55:17;23.30;99.90
38380;DHT22;38377;47.418;18.882;2023-06-10T09:57:43;23.20;99.00
38380;DHT22;38377;47.418;18.882;2023-06-10T10:00:14;23.40;99.90
38380;DHT22;38377;47.418;18.882;2023-06-10T10:02:51;24.00;99.90
38380;DHT22;38377;47.418;18.882;2023-06-10T10:05:18;24.50;98.10
38380;DHT22;38377;47.418;18.882;2023-06-10T10:07:45;24.80;97.10
38380;DHT22;38377;47.418;18.882;2023-06-10T10:10:12;24.30;97.00
38380;DHT22;38377;47.418;18.882;2023-06-10T10:12:39;23.80;98.60
38380;DHT22;38377;47.418;18.882;2023-06-10T10:15:09;23.40;99.90
38380;DHT22;38377;47.418;18.882;2023-06-10T10:20:31;22.80;99.90
38380;DHT22;38377;47.418;18.882;2023-06-10T10:22:59;22.50;99.90
38380;DHT22;38377;47.418;18.882;2023-06-10T10:25:40;22.30;99.90
38380;DHT22;38377;47.418;18.882;2023-06-10T10:28:14;22.20;99.90
38380;DHT22;38377;47.418;18.882;2023-06-10T10:30:54;22.10;99.90
38380;DHT22;38377;47.418;18.882;2023-06-10T10:33:36;22.00;99.90
38380;DHT22;38377;47.418;18.882;2023-06-10T10:36:05;21.90;99.90
38380;DHT22;38377;47.418;18.882;2023-06-10T10:38:33;21.70;99.90
38380;DHT22;38377;47.418;18.882;2023-06-10T10:40:59;21.70;99.90
38380;DHT22;38377;47.418;18.882;2023-06-10T10:43:33;21.60;99.90
38380;DHT22;38377;47.418;18.882;2023-06-10T10:46:00;21.60;99.90
38380;DHT22;38377;47.418;18.882;2023-06-10T10:48:26;21.60;99.90
38380;DHT22;38377;47.418;18.882;2023-06-10T10:50:58;21.60;99.90
38380;DHT22;38377;47.418;18.882;2023-06-10T10:53:24;21.70;99.90
38380;DHT22;38377;47.418;18.882;2023-06-10T10:56:07;21.80;99.90
38380;DHT22;38377;47.418;18.882;2023-06-10T10:58:34;21.60;99.90
38380;DHT22;38377;47.418;18.882;2023-06-10T11:01:00;21.60;99.90
38380;DHT22;38377;47.418;18.882;2023-06-10T11:03:45;21.50;99.90
38380;DHT22;38377;47.418;18.882;2023-06-10T11:06:16;21.40;99.90
38380;DHT22;38377;47.418;18.882;2023-06-10T11:11:24;21.30;99.90
38380;DHT22;38377;47.418;18.882;2023-06-10T11:16:38;21.30;99.90
38380;DHT22;38377;47.418;18.882;2023-06-10T11:19:05;21.30;99.90
38380;DHT22;38377;47.418;18.882;2023-06-10T11:21:31;21.40;99.90
38380;DHT22;38377;47.418;18.882;2023-06-10T11:23:58;21.50;99.90
38380;DHT22;38377;47.418;18.882;2023-06-10T11:33:57;22.90;99.90
38380;DHT22;38377;47.418;18.882;2023-06-10T11:36:23;23.10;99.90
38380;DHT22;38377;47.418;18.882;2023-06-10T11:38:55;22.80;99.90
38380;DHT22;38377;47.418;18.882;2023-06-10T11:41:21;22.60;99.90
38380;DHT22;38377;47.418;18.882;2023-06-10T11:43:47;22.70;99.90
38380;DHT22;38377;47.418;18.882;2023-06-10T11:46:14;22.70;99.90
38380;DHT22;38377;47.418;18.882;2023-06-10T11:48:49;23.20;99.90
38380;DHT22;38377;47.418;18.882;2023-06-10T11:51:15;23.70;99.90
38380;DHT22;38377;47.418;18.882;2023-06-10T11:53:46;23.30;97.80
38380;DHT22;38377;47.418;18.882;2023-06-10T11:56:12;23.50;99.90
38380;DHT22;38377;47.418;18.882;2023-06-10T11:58:41;23.90;98.60
38380;DHT22;38377;47.418;18.882;2023-06-10T12:01:08;23.70;98.00
38380;DHT22;38377;47.418;18.882;2023-06-10T12:03:37;24.10;99.10
38380;DHT22;38377;47.418;18.882;2023-06-10T12:06:05;24.50;98.00
38380;DHT22;38377;47.418;18.882;2023-06-10T12:08:32;24.00;96.40
38380;DHT22;38377;47.418;18.882;2023-06-10T12:10:58;24.20;98.90
38380;DHT22;38377;47.418;18.882;2023-06-10T12:13:30;24.30;97.00
38380;DHT22;38377;47.418;18.882;2023-06-10T12:16:09;24.90;96.80
38380;DHT22;38377;47.418;18.882;2023-06-10T12:18:35;25.20;95.70
38380;DHT22;38377;47.418;18.882;2023-06-10T12:21:00;24.90;95.60
38380;DHT22;38377;47.418;18.882;2023-06-10T12:23:26;25.40;96.10
38380;DHT22;38377;47.418;18.882;2023-06-10T12:25:53;25.30;93.90
38380;DHT22;38377;47.418;18.882;2023-06-10T12:28:23;25.10;94.40
38380;DHT22;38377;47.418;18.882;2023-06-10T12:30:49;24.80;96.70
38380;DHT22;38377;47.418;18.882;2023-06-10T12:33:19;24.00;96.50
38380;DHT22;38377;47.418;18.882;2023-06-10T12:35:52;23.70;97.20
38380;DHT22;38377;47.418;18.882;2023-06-10T12:38:25;23.50;98.40
38380;DHT22;38377;47.418;18.882;2023-06-10T12:40:53;23.10;98.60
38380;DHT22;38377;47.418;18.882;2023-06-10T12:43:25;23.00;99.20
38380;DHT22;38377;47.418;18.882;2023-06-10T12:45:51;22.80;99.40
38380;DHT22;38377;47.418;18.882;2023-06-10T12:48:23;22.70;99.90
38380;DHT22;38377;47.418;18.882;2023-06-10T12:50:54;22.40;99.90
38380;DHT22;38377;47.418;18.882;2023-06-10T12:53:20;22.30;99.90
38380;DHT22;38377;47.418;18.882;2023-06-10T12:55:47;22.20;99.90
38380;DHT22;38377;47.418;18.882;2023-06-10T12:58:13;22.10;99.90
38380;DHT22;38377;47.418;18.882;2023-06-10T13:00:39;22.10;99.90
38380;DHT22;38377;47.418;18.882;2023-06-10T13:03:06;22.10;99.90
38380;DHT22;38377;47.418;18.882;2023-06-10T13:05:32;22.10;99.90
38380;DHT22;38377;47.418;18.882;2023-06-10T13:07:59;22.30;99.90
38380;DHT22;38377;47.418;18.882;2023-06-10T13:10:25;22.70;99.90
38380;DHT22;38377;47.418;18.882;2023-06-10T13:12:51;23.10;99.90
38380;DHT22;38377;47.418;18.882;2023-06-10T13:15:18;23.50;99.10
38380;DHT22;38377;47.418;18.882;2023-06-10T13:17:44;23.80;98.80
38380;DHT22;38377;47.418;18.882;2023-06-10T13:20:14;24.20;97.90
38380;DHT22;38377;47.418;18.882;2023-06-10T13:22:40;24.60;98.00
38380;DHT22;38377;47.418;18.882;2023-06-10T13:25:06;24.50;95.80
38380;DHT22;38377;47.418;18.882;2023-06-10T13:27:33;24.60;95.90
38380;DHT22;38377;47.418;18.882;2023-06-10T13:29:59;24.90;95.20
38380;DHT22;38377;47.418;18.882;2023-06-10T13:32:25;24.70;95.70
38380;DHT22;38377;47.418;18.882;2023-06-10T13:34:51;25.00;96.20
38380;DHT22;38377;47.418;18.882;2023-06-10T13:37:19;25.10;96.10
38380;DHT22;38377;47.418;18.882;2023-06-10T13:39:46;25.00;97.20
38380;DHT22;38377;47.418;18.882;2023-06-10T13:42:14;24.80;97.60
38380;DHT22;38377;47.418;18.882;2023-06-10T13:44:41;24.50;97.60
38380;DHT22;38377;47.418;18.882;2023-06-10T13:47:07;24.10;98.00
38380;DHT22;38377;47.418;18.882;2023-06-10T13:49:36;23.80;97.70
38380;DHT22;38377;47.418;18.882;2023-06-10T13:52:03;23.60;98.60
38380;DHT22;38377;47.418;18.882;2023-06-10T13:54:29;23.40;99.30
38380;DHT22;38377;47.418;18.882;2023-06-10T13:56:56;23.30;99.90
38380;DHT22;38377;47.418;18.882;2023-06-10T13:59:23;23.20;99.90
38380;DHT22;38377;47.418;18.882;2023-06-10T14:01:50;23.00;99.90
38380;DHT22;38377;47.418;18.882;2023-06-10T14:04:15;22.80;99.90
38380;DHT22;38377;47.418;18.882;2023-06-10T14:06:42;22.70;99.90
38380;DHT22;38377;47.418;18.882;2023-06-10T14:09:07;22.70;99.90
38380;DHT22;38377;47.418;18.882;2023-06-10T14:11:33;22.60;99.90
38380;DHT22;38377;47.418;18.882;2023-06-10T14:13:59;22.50;99.90
38380;DHT22;38377;47.418;18.882;2023-06-10T14:16:26;22.30;99.90
38380;DHT22;38377;47.418;18.882;2023-06-10T14:18:53;21.80;99.90
38380;DHT22;38377;47.418;18.882;2023-06-10T14:21:20;21.60;99.90
38380;DHT22;38377;47.418;18.882;2023-06-10T14:23:46;21.20;99.90
38380;DHT22;38377;47.418;18.882;2023-06-10T14:26:15;20.90;99.90
38380;DHT22;38377;47.418;18.882;2023-06-10T14:28:42;20.80;99.90
38380;DHT22;38377;47.418;18.882;2023-06-10T14:31:08;20.70;99.90
38380;DHT22;38377;47.418;18.882;2023-06-10T14:33:34;20.60;99.90
38380;DHT22;38377;47.418;18.882;2023-06-10T14:36:01;20.50;99.90
38380;DHT22;38377;47.418;18.882;2023-06-10T14:38:26;20.50;99.90
38380;DHT22;38377;47.418;18.882;2023-06-10T14:40:53;20.40;99.90
38380;DHT22;38377;47.418;18.882;2023-06-10T14:43:19;20.40;99.90
38380;DHT22;38377;47.418;18.882;2023-06-10T14:45:46;20.30;99.90
38380;DHT22;38377;47.418;18.882;2023-06-10T14:48:13;20.20;99.90
38380;DHT22;38377;47.418;18.882;2023-06-10T14:50:39;20.30;99.90
38380;DHT22;38377;47.418;18.882;2023-06-10T14:53:07;20.40;99.90
38380;DHT22;38377;47.418;18.882;2023-06-10T14:55:33;20.40;99.90
38380;DHT22;38377;47.418;18.882;2023-06-10T14:57:59;20.60;99.90
38380;DHT22;38377;47.418;18.882;2023-06-10T15:00:25;20.60;99.90
38380;DHT22;38377;47.418;18.882;2023-06-10T15:02:51;20.80;99.90
38380;DHT22;38377;47.418;18.882;2023-06-10T15:05:19;20.90;99.90
38380;DHT22;38377;47.418;18.882;2023-06-10T15:07:46;20.90;99.90
38380;DHT22;38377;47.418;18.882;2023-06-10T15:10:12;20.90;99.90
38380;DHT22;38377;47.418;18.882;2023-06-10T15:12:38;21.00;99.90
38380;DHT22;38377;47.418;18.882;2023-06-10T15:15:04;21.00;99.90
38380;DHT22;38377;47.418;18.882;2023-06-10T15:17:31;21.10;99.90
38380;DHT22;38377;47.418;18.882;2023-06-10T15:19:58;21.20;99.90
38380;DHT22;38377;47.418;18.882;2023-06-10T15:22:23;21.20;99.90
38380;DHT22;38377;47.418;18.882;2023-06-10T15:24:50;21.30;99.90
38380;DHT22;38377;47.418;18.882;2023-06-10T15:27:19;21.30;99.90
38380;DHT22;38377;47.418;18.882;2023-06-10T15:29:45;21.30;99.90
38380;DHT22;38377;47.418;18.882;2023-06-10T15:32:11;21.40;99.90
38380;DHT22;38377;47.418;18.882;2023-06-10T15:34:38;21.30;99.90
38380;DHT22;38377;47.418;18.882;2023-06-10T15:37:04;21.40;99.90